Time;durP1;ratioP1;P1;durP2;ratioP2;P2;SDS_P1;SDS_P2;PMS_P1;PMS_P2;Temp;Humidity;BMP_temperature;BMP_pressure;BME280_temperature;BME280_humidity;BME280_pressure;Samples;Min_cycle;Max_cycle;Signal;HPM_P1;HPM_P2
2021/08/01 00:01:07;;;;;;;5.25;4.78;;;25.60;95.80;;;;;;5055139;28;20646;-76
2021/08/01 00:03:33;;;;;;;5.10;4.60;;;25.60;95.90;;;;;;5055804;28;20049;-76
2021/08/01 00:05:59;;;;;;;5.15;4.60;;;25.60;96.00;;;;;;5056030;28;20017;-75
2021/08/01 00:08:25;;;;;;;5.07;4.53;;;25.60;96.30;;;;;;5056296;28;20029;-75
2021/08/01 00:10:52;;;;;;;4.60;4.20;;;25.60;96.30;;;;;;5055875;28;20020;-75
2021/08/01 00:13:18;;;;;;;6.75;4.97;;;25.60;96.30;;;;;;5056365;28;20025;-75
2021/08/01 00:15:43;;;;;;;5.00;4.50;;;25.60;96.50;;;;;;5055990;28;20032;-75
2021/08/01 00:18:09;;;;;;;4.85;4.35;;;25.60;96.30;;;;;;5056095;28;20072;-76
2021/08/01 00:20:35;;;;;;;6.25;4.57;;;25.60;96.30;;;;;;5055774;28;20033;-75
2021/08/01 00:23:02;;;;;;;5.07;4.55;;;25.50;96.50;;;;;;5055988;28;20496;-75
2021/08/01 00:25:28;;;;;;;4.22;3.92;;;25.50;97.00;;;;;;5055796;28;20017;-75
2021/08/01 00:27:54;;;;;;;5.05;4.63;;;25.50;97.00;;;;;;5055554;28;20032;-75
2021/08/01 00:30:20;;;;;;;5.60;5.03;;;25.40;97.60;;;;;;5055640;28;20492;-75
2021/08/01 00:32:46;;;;;;;5.78;4.22;;;25.40;97.50;;;;;;5050502;28;20030;-75
2021/08/01 00:35:11;;;;;;;5.10;4.70;;;25.40;97.50;;;;;;5046090;28;20029;-75
2021/08/01 00:37:37;;;;;;;4.95;4.47;;;25.40;97.30;;;;;;5055451;28;20029;-75
2021/08/01 00:40:05;;;;;;;5.22;4.50;;;25.40;97.30;;;;;;5055539;28;20485;-75
2021/08/01 00:42:30;;;;;;;4.63;4.22;;;25.30;97.30;;;;;;5055643;28;20029;-75
2021/08/01 00:44:56;;;;;;;5.95;5.43;;;25.40;97.20;;;;;;5055187;28;20531;-75
2021/08/01 00:47:22;;;;;;;4.82;4.43;;;25.40;97.30;;;;;;5055601;28;20100;-75
2021/08/01 00:49:48;;;;;;;5.32;4.80;;;25.40;97.20;;;;;;5054920;28;20032;-75
2021/08/01 00:52:15;;;;;;;6.65;5.07;;;25.40;97.10;;;;;;5055329;28;20091;-75
2021/08/01 00:54:40;;;;;;;5.00;4.47;;;25.40;97.80;;;;;;5055010;28;20102;-75
2021/08/01 00:57:06;;;;;;;6.57;4.63;;;25.40;98.00;;;;;;5055252;28;20458;-75
2021/08/01 00:59:34;;;;;;;6.03;4.85;;;25.30;98.20;;;;;;5055266;28;20075;-75
2021/08/01 01:02:24;;;;;;;4.45;4.05;;;25.30;98.40;;;;;;5055057;28;20063;-75
2021/08/01 01:05:15;;;;;;;5.25;4.80;;;25.30;98.60;;;;;;5041596;28;20025;-75
2021/08/01 01:08:20;;;;;;;5.45;4.85;;;25.20;99.40;;;;;;5054759;28;20025;-75
2021/08/01 01:10:48;;;;;;;8.75;5.20;;;25.30;98.50;;;;;;5054826;28;20024;-75
2021/08/01 01:13:20;;;;;;;5.20;4.75;;;25.30;98.20;;;;;;5054886;28;20024;-75
2021/08/01 01:15:48;;;;;;;5.45;4.65;;;25.20;98.30;;;;;;5054804;28;20021;-75
2021/08/01 01:18:19;;;;;;;4.57;4.15;;;25.10;98.80;;;;;;5054782;28;20052;-75
2021/08/01 01:20:54;;;;;;;5.37;4.87;;;25.00;99.00;;;;;;5055049;28;20020;-75
2021/08/01 01:23:44;;;;;;;4.50;4.10;;;25.00;99.00;;;;;;5054705;28;20022;-75
2021/08/01 01:26:24;;;;;;;6.43;4.75;;;25.00;98.80;;;;;;5036852;28;20045;-75
2021/08/01 01:29:03;;;;;;;5.80;5.25;;;25.00;99.00;;;;;;5054652;28;20063;-75
2021/08/01 01:32:03;;;;;;;6.22;4.90;;;24.90;99.00;;;;;;5037060;28;20171;-75
2021/08/01 01:35:01;;;;;;;5.18;4.68;;;24.90;98.70;;;;;;5031678;28;20033;-75
2021/08/01 01:37:28;;;;;;;5.00;4.60;;;24.90;98.40;;;;;;5053776;28;20036;-75
2021/08/01 01:39:57;;;;;;;6.18;4.57;;;24.90;98.60;;;;;;5054389;28;20425;-75
2021/08/01 01:42:23;;;;;;;4.80;4.40;;;24.90;98.60;;;;;;5054498;28;20106;-75
2021/08/01 01:44:49;;;;;;;6.28;5.65;;;25.00;98.60;;;;;;5054298;28;20459;-75
2021/08/01 01:47:17;;;;;;;5.00;4.50;;;24.90;98.50;;;;;;5036497;28;20054;-75
2021/08/01 01:49:43;;;;;;;5.00;4.50;;;24.90;98.60;;;;;;5054150;28;20035;-75
2021/08/01 01:52:11;;;;;;;8.68;5.47;;;25.00;98.70;;;;;;5054405;28;20409;-75
2021/08/01 01:54:37;;;;;;;8.27;5.00;;;24.90;98.80;;;;;;5036431;28;20068;-75
2021/08/01 01:57:07;;;;;;;5.72;4.72;;;24.90;99.10;;;;;;5054018;28;20052;-75
2021/08/01 01:59:33;;;;;;;5.68;5.00;;;24.90;98.80;;;;;;5054290;28;20026;-75
2021/08/01 02:01:59;;;;;;;6.90;4.55;;;24.90;98.70;;;;;;5052720;28;20075;-74
2021/08/01 02:04:25;;;;;;;5.57;5.07;;;24.90;98.60;;;;;;5052670;28;20028;-74
2021/08/01 02:06:51;;;;;;;5.32;4.90;;;24.90;98.60;;;;;;5052090;28;20048;-74
2021/08/01 02:09:44;;;;;;;6.28;4.90;;;24.80;98.40;;;;;;5052512;28;20025;-75
2021/08/01 02:12:19;;;;;;;5.93;4.90;;;24.80;98.20;;;;;;5052521;28;20021;-74
2021/08/01 02:15:02;;;;;;;8.10;4.97;;;24.80;98.40;;;;;;5052272;28;20040;-74
2021/08/01 02:17:51;;;;;;;8.25;5.03;;;24.80;98.60;;;;;;5053432;28;20440;-75
2021/08/01 02:20:20;;;;;;;5.40;4.90;;;24.80;98.70;;;;;;5052840;28;20029;-74
2021/08/01 02:22:47;;;;;;;10.50;4.95;;;24.80;98.80;;;;;;5053655;28;20029;-74
2021/08/01 02:25:16;;;;;;;9.05;5.40;;;24.80;98.80;;;;;;5053329;28;20036;-74
2021/08/01 02:27:43;;;;;;;4.93;4.50;;;24.70;98.80;;;;;;5053365;28;20029;-75
2021/08/01 02:30:10;;;;;;;6.90;4.97;;;24.80;99.10;;;;;;5053003;28;20036;-74
2021/08/01 02:32:38;;;;;;;6.82;5.10;;;24.70;99.00;;;;;;5053412;28;20032;-74
2021/08/01 02:35:04;;;;;;;5.65;5.07;;;24.70;99.00;;;;;;5053179;28;20492;-74
2021/08/01 02:37:33;;;;;;;5.15;4.75;;;24.70;99.10;;;;;;5053202;28;20112;-74
2021/08/01 02:40:00;;;;;;;5.75;4.75;;;24.60;99.00;;;;;;5053262;28;20440;-74
2021/08/01 02:42:25;;;;;;;6.75;5.75;;;24.70;98.90;;;;;;5053214;28;20024;-75
2021/08/01 02:44:56;;;;;;;6.63;5.22;;;24.70;98.90;;;;;;5052905;28;20032;-74
2021/08/01 02:47:23;;;;;;;5.68;5.18;;;24.60;99.20;;;;;;5053114;28;20397;-75
2021/08/01 02:49:51;;;;;;;9.45;5.50;;;24.60;99.30;;;;;;5053353;28;20045;-74
2021/08/01 02:52:30;;;;;;;7.10;5.03;;;24.60;99.10;;;;;;5053166;28;20040;-75
2021/08/01 02:54:57;;;;;;;8.57;5.43;;;24.50;99.10;;;;;;5052993;28;20357;-75
2021/08/01 02:57:26;;;;;;;5.03;4.68;;;24.50;99.20;;;;;;5052579;28;20539;-74
2021/08/01 02:59:53;;;;;;;6.75;5.10;;;24.50;99.50;;;;;;5053011;28;20079;-74
2021/08/01 03:02:19;;;;;;;6.68;5.30;;;24.40;99.60;;;;;;5053036;28;20049;-75
2021/08/01 03:04:46;;;;;;;5.60;5.10;;;24.40;99.60;;;;;;5052629;28;20032;-74
2021/08/01 03:07:12;;;;;;;9.90;5.97;;;24.40;99.50;;;;;;5052507;28;20029;-74
2021/08/01 03:09:38;;;;;;;7.47;5.15;;;24.40;99.60;;;;;;5034590;28;20453;-75
2021/08/01 03:12:15;;;;;;;7.85;6.00;;;24.40;99.50;;;;;;5052742;28;20021;-74
2021/08/01 03:14:41;;;;;;;9.05;5.80;;;24.40;99.50;;;;;;5032995;28;20112;-74
2021/08/01 03:17:07;;;;;;;5.97;5.45;;;24.30;99.80;;;;;;5032822;28;20079;-74
2021/08/01 03:19:35;;;;;;;7.32;5.50;;;24.40;99.90;;;;;;5032856;28;20028;-75
2021/08/01 03:22:01;;;;;;;7.32;5.93;;;24.40;99.80;;;;;;5032678;28;20018;-75
2021/08/01 03:24:27;;;;;;;6.57;5.65;;;24.30;99.90;;;;;;5032679;28;20029;-75
2021/08/01 03:26:53;;;;;;;7.53;4.93;;;24.30;99.90;;;;;;5052523;28;20109;-74
2021/08/01 03:29:19;;;;;;;6.97;5.68;;;24.30;99.80;;;;;;5052648;28;20159;-75
2021/08/01 03:31:44;;;;;;;6.15;5.40;;;24.30;99.70;;;;;;5052248;28;20480;-74
2021/08/01 03:34:10;;;;;;;6.80;6.10;;;24.40;99.90;;;;;;5052374;28;20675;-74
2021/08/01 03:36:36;;;;;;;6.80;5.65;;;24.30;99.90;;;;;;5052296;28;20102;-74
2021/08/01 03:39:05;;;;;;;7.25;5.72;;;24.30;99.70;;;;;;5052235;28;20025;-74
2021/08/01 03:41:31;;;;;;;5.95;5.45;;;24.40;99.90;;;;;;5052312;28;20040;-74
2021/08/01 03:43:57;;;;;;;6.15;5.40;;;24.40;99.90;;;;;;5052327;28;20028;-75
2021/08/01 03:46:22;;;;;;;6.88;5.15;;;24.40;99.90;;;;;;5052450;28;20024;-74
2021/08/01 03:48:48;;;;;;;5.95;5.35;;;24.40;99.90;;;;;;5034465;28;20023;-74
2021/08/01 03:51:14;;;;;;;5.32;4.90;;;24.30;99.90;;;;;;5034132;28;20112;-75
2021/08/01 03:53:40;;;;;;;6.20;4.85;;;24.40;99.90;;;;;;5034372;28;20044;-74
2021/08/01 03:56:06;;;;;;;7.15;5.18;;;24.30;99.90;;;;;;5052247;28;20056;-75
2021/08/01 03:58:32;;;;;;;6.47;5.88;;;24.20;99.90;;;;;;5052368;28;20452;-75
2021/08/01 04:00:58;;;;;;;6.15;5.55;;;24.10;99.90;;;;;;5052340;28;20100;-75
2021/08/01 04:03:23;;;;;;;5.55;5.00;;;24.20;99.90;;;;;;5052131;28;20518;-75
2021/08/01 04:05:49;;;;;;;6.90;5.72;;;24.10;99.90;;;;;;5051265;28;20024;-74
2021/08/01 04:08:15;;;;;;;5.90;5.35;;;24.10;99.90;;;;;;5051605;28;20035;-74
2021/08/01 04:10:40;;;;;;;8.50;5.50;;;24.10;99.90;;;;;;5052312;28;20017;-75
2021/08/01 04:13:06;;;;;;;6.82;5.50;;;24.00;99.90;;;;;;5052220;28;20036;-75
2021/08/01 04:15:32;;;;;;;11.00;5.85;;;24.00;99.90;;;;;;5052120;28;20040;-74
2021/08/01 04:17:58;;;;;;;6.45;5.78;;;23.90;99.90;;;;;;5051828;28;20033;-74
2021/08/01 04:20:24;;;;;;;5.93;5.22;;;24.00;99.90;;;;;;5051988;28;20029;-74
2021/08/01 04:22:52;;;;;;;6.70;6.07;;;24.00;99.90;;;;;;5051967;28;20029;-74
2021/08/01 04:25:18;;;;;;;8.55;6.18;;;23.90;99.90;;;;;;5051928;28;20040;-74
2021/08/01 04:27:43;;;;;;;7.03;5.53;;;23.90;99.90;;;;;;5051882;28;20496;-74
2021/08/01 04:30:10;;;;;;;6.65;5.95;;;23.90;99.90;;;;;;5052033;28;20033;-75
2021/08/01 04:32:35;;;;;;;8.93;5.45;;;23.90;99.90;;;;;;5051867;28;20710;-75
2021/08/01 04:35:01;;;;;;;6.20;5.70;;;23.90;99.90;;;;;;5051641;28;20033;-75
2021/08/01 04:37:27;;;;;;;8.07;6.00;;;23.80;99.90;;;;;;5051484;28;20033;-75
2021/08/01 04:39:53;;;;;;;7.00;6.05;;;23.80;99.90;;;;;;5051828;28;20520;-74
2021/08/01 04:42:19;;;;;;;10.00;6.18;;;23.90;99.90;;;;;;5051975;28;20029;-75
2021/08/01 04:44:45;;;;;;;5.65;5.15;;;23.90;99.90;;;;;;5055553;28;20021;-75
2021/08/01 04:47:14;;;;;;;7.70;5.97;;;23.90;99.90;;;;;;5055409;28;20554;-74
2021/08/01 04:49:40;;;;;;;7.80;6.10;;;24.00;99.90;;;;;;5054901;28;20032;-74
2021/08/01 04:52:07;;;;;;;6.93;6.25;;;23.90;99.90;;;;;;5037564;28;20025;-75
2021/08/01 04:54:36;;;;;;;7.82;6.25;;;23.90;99.90;;;;;;5055338;28;20063;-75
2021/08/01 04:57:02;;;;;;;6.47;5.88;;;23.90;99.90;;;;;;5055095;28;20492;-74
2021/08/01 04:59:28;;;;;;;7.50;6.47;;;24.00;99.90;;;;;;5055206;28;20013;-74
2021/08/01 05:01:54;;;;;;;6.45;5.82;;;24.00;99.90;;;;;;5055136;28;20461;-75
2021/08/01 05:04:20;;;;;;;9.25;5.90;;;24.00;99.90;;;;;;5054864;28;20079;-75
2021/08/01 05:06:46;;;;;;;6.30;5.70;;;24.00;99.90;;;;;;5054893;28;20028;-75
2021/08/01 05:09:11;;;;;;;9.30;6.13;;;24.00;99.90;;;;;;5037072;28;20035;-75
2021/08/01 05:11:37;;;;;;;10.68;6.43;;;24.00;99.90;;;;;;5055185;28;20033;-75
2021/08/01 05:14:03;;;;;;;7.07;5.70;;;24.00;99.90;;;;;;5040156;28;20511;-74
2021/08/01 05:16:29;;;;;;;8.90;5.90;;;24.10;99.90;;;;;;5035101;28;20405;-74
2021/08/01 05:18:55;;;;;;;6.32;5.60;;;24.20;99.90;;;;;;5035037;28;20026;-75
2021/08/01 05:21:21;;;;;;;6.25;5.65;;;24.20;99.90;;;;;;5034998;28;20083;-75
2021/08/01 05:23:48;;;;;;;7.00;5.80;;;24.20;99.90;;;;;;5034795;28;20017;-74
2021/08/01 05:26:14;;;;;;;8.85;6.65;;;24.10;99.90;;;;;;5049232;28;20025;-74
2021/08/01 05:28:40;;;;;;;5.72;5.15;;;24.10;99.90;;;;;;5054783;28;20032;-74
2021/08/01 05:31:06;;;;;;;9.30;6.00;;;24.10;99.90;;;;;;5054660;28;20032;-75
2021/08/01 05:33:31;;;;;;;12.15;6.00;;;24.10;99.90;;;;;;5036742;28;20060;-74
2021/08/01 05:35:57;;;;;;;7.10;6.38;;;24.20;99.90;;;;;;5054495;28;20540;-74
2021/08/01 05:38:23;;;;;;;8.57;6.20;;;24.20;99.90;;;;;;5054399;28;20024;-75
2021/08/01 05:40:50;;;;;;;6.15;5.55;;;24.30;99.90;;;;;;5054403;28;20053;-74
2021/08/01 05:43:15;;;;;;;8.60;5.50;;;24.30;99.90;;;;;;5054449;28;20040;-74
2021/08/01 05:45:43;;;;;;;7.55;6.13;;;24.30;99.90;;;;;;5053737;28;20026;-75
2021/08/01 05:48:09;;;;;;;9.77;6.82;;;24.40;99.90;;;;;;5054356;28;20488;-74
2021/08/01 05:50:35;;;;;;;6.47;5.65;;;24.40;99.90;;;;;;5036419;28;20025;-75
2021/08/01 05:53:00;;;;;;;6.47;5.82;;;24.40;99.90;;;;;;5054061;28;20029;-75
2021/08/01 05:55:26;;;;;;;6.55;5.88;;;24.40;99.90;;;;;;5052802;28;20103;-75
2021/08/01 05:57:52;;;;;;;9.48;5.93;;;24.40;99.90;;;;;;5054171;28;20035;-74
2021/08/01 06:00:17;;;;;;;8.25;5.57;;;24.50;99.90;;;;;;5054079;28;20100;-74
2021/08/01 06:02:43;;;;;;;7.90;6.03;;;24.60;99.90;;;;;;5053303;28;20108;-75
2021/08/01 06:05:09;;;;;;;8.35;6.13;;;24.70;99.90;;;;;;5053965;28;20419;-75
2021/08/01 06:07:35;;;;;;;8.68;6.05;;;24.70;99.90;;;;;;5053837;28;20029;-75
2021/08/01 06:10:01;;;;;;;6.70;6.10;;;24.60;99.90;;;;;;5054051;28;20033;-75
2021/08/01 06:12:26;;;;;;;7.70;5.70;;;24.70;99.90;;;;;;5054038;28;20488;-74
2021/08/01 06:14:54;;;;;;;7.93;5.97;;;24.80;99.90;;;;;;5053630;28;20040;-75
2021/08/01 06:17:20;;;;;;;7.93;6.30;;;24.80;99.90;;;;;;5053508;28;20028;-75
2021/08/01 06:19:46;;;;;;;6.90;6.28;;;24.90;99.90;;;;;;5053360;28;20021;-75
2021/08/01 06:22:14;;;;;;;6.90;6.20;;;24.90;99.90;;;;;;5053771;28;20075;-75
2021/08/01 06:24:40;;;;;;;8.98;6.63;;;25.00;99.90;;;;;;5053670;28;20025;-74
2021/08/01 06:27:05;;;;;;;7.47;6.75;;;25.00;99.90;;;;;;5053323;28;20075;-74
2021/08/01 06:29:31;;;;;;;9.93;6.05;;;25.00;99.90;;;;;;5053562;28;20139;-74
2021/08/01 06:31:57;;;;;;;9.45;6.38;;;25.00;99.90;;;;;;5053358;28;20608;-74
2021/08/01 06:34:23;;;;;;;7.28;6.18;;;25.00;99.90;;;;;;5035475;28;20021;-75
2021/08/01 06:36:50;;;;;;;6.43;5.82;;;25.10;99.90;;;;;;5035279;28;20035;-74
2021/08/01 06:39:15;;;;;;;7.63;5.68;;;25.10;99.90;;;;;;5035207;28;20044;-74
2021/08/01 06:41:41;;;;;;;8.45;6.57;;;25.20;99.90;;;;;;5053487;28;20538;-74
2021/08/01 06:44:07;;;;;;;8.20;5.80;;;25.30;99.90;;;;;;5053397;28;20025;-74
2021/08/01 06:46:32;;;;;;;7.72;6.47;;;25.40;99.90;;;;;;5052896;28;20024;-74
2021/08/01 06:48:58;;;;;;;7.93;7.10;;;25.40;99.90;;;;;;5053454;28;20032;-75
2021/08/01 06:51:24;;;;;;;7.13;6.47;;;25.50;99.90;;;;;;5053007;28;20071;-75
2021/08/01 06:53:49;;;;;;;10.38;6.55;;;25.50;99.90;;;;;;5053020;28;20106;-75
2021/08/01 06:56:15;;;;;;;7.05;6.45;;;25.50;99.90;;;;;;5053072;28;20074;-75
2021/08/01 06:58:41;;;;;;;6.40;5.78;;;25.50;99.90;;;;;;5052585;28;20374;-75
2021/08/01 07:01:06;;;;;;;8.30;6.18;;;25.50;99.90;;;;;;5052935;28;20382;-75
2021/08/01 07:03:32;;;;;;;7.75;6.80;;;25.50;99.90;;;;;;5052934;28;20029;-75
2021/08/01 07:05:58;;;;;;;10.80;6.65;;;25.60;99.90;;;;;;5052462;28;20051;-74
2021/08/01 07:08:24;;;;;;;11.68;7.18;;;25.60;99.90;;;;;;5034358;28;20107;-74
2021/08/01 07:10:49;;;;;;;7.18;6.47;;;25.70;99.90;;;;;;5052965;28;20083;-75
2021/08/01 07:13:15;;;;;;;8.70;6.75;;;25.70;99.90;;;;;;5052688;28;20079;-74
2021/08/01 07:15:41;;;;;;;9.00;7.03;;;25.70;99.90;;;;;;5052717;28;20036;-75
2021/08/01 07:18:07;;;;;;;8.23;6.60;;;25.70;99.90;;;;;;5052579;28;20029;-75
2021/08/01 07:20:34;;;;;;;10.50;6.72;;;25.80;99.90;;;;;;5034723;28;20056;-75
2021/08/01 07:23:00;;;;;;;8.32;6.82;;;25.80;99.90;;;;;;5052783;28;20029;-75
2021/08/01 07:25:26;;;;;;;11.68;6.80;;;25.80;99.90;;;;;;5052350;28;20019;-75
2021/08/01 07:27:52;;;;;;;7.18;6.53;;;25.80;99.90;;;;;;5052696;28;20044;-74
2021/08/01 07:30:18;;;;;;;14.18;7.07;;;25.80;99.90;;;;;;5052299;28;20029;-75
2021/08/01 07:32:44;;;;;;;8.10;7.28;;;25.80;99.90;;;;;;5052410;28;20021;-75
2021/08/01 07:35:10;;;;;;;8.48;7.40;;;25.90;99.90;;;;;;5052388;28;20105;-75
2021/08/01 07:37:37;;;;;;;9.40;7.07;;;26.00;99.90;;;;;;5052588;28;20597;-75
2021/08/01 07:40:03;;;;;;;10.27;7.63;;;26.10;99.90;;;;;;5052212;28;20047;-74
2021/08/01 07:42:29;;;;;;;10.27;7.22;;;26.10;99.90;;;;;;5052249;28;20354;-75
2021/08/01 07:45:00;;;;;;;11.63;8.05;;;26.10;99.90;;;;;;5052268;28;20024;-75
2021/08/01 07:47:27;;;;;;;13.15;7.65;;;26.20;99.90;;;;;;5052446;28;20082;-75
2021/08/01 07:49:53;;;;;;;14.73;8.18;;;26.20;99.90;;;;;;5052514;28;20162;-75
2021/08/01 07:52:20;;;;;;;8.88;7.40;;;26.20;99.90;;;;;;5051997;28;20140;-75
2021/08/01 07:54:47;;;;;;;11.27;6.93;;;26.20;99.90;;;;;;5052353;28;20017;-75
2021/08/01 07:57:30;;;;;;;8.55;7.40;;;26.30;99.90;;;;;;5052185;28;20029;-75
2021/08/01 07:59:57;;;;;;;12.40;6.90;;;26.50;99.90;;;;;;5052569;28;20029;-76
2021/08/01 08:02:24;;;;;;;10.05;7.68;;;26.60;99.90;;;;;;5051737;28;20033;-75
2021/08/01 08:04:50;;;;;;;12.25;8.05;;;26.70;99.90;;;;;;5051583;28;20036;-75
2021/08/01 08:07:16;;;;;;;14.82;8.13;;;26.80;99.90;;;;;;5051757;28;20032;-75
2021/08/01 08:09:43;;;;;;;16.85;8.18;;;26.80;99.90;;;;;;5052266;28;20222;-75
2021/08/01 08:12:09;;;;;;;11.15;8.30;;;26.70;99.90;;;;;;5051645;28;20037;-75
2021/08/01 08:14:35;;;;;;;10.32;8.07;;;26.70;99.90;;;;;;5052170;28;20021;-75
2021/08/01 08:17:01;;;;;;;10.63;8.20;;;26.80;99.90;;;;;;5034087;28;20469;-76
2021/08/01 08:19:27;;;;;;;13.57;8.88;;;26.80;99.90;;;;;;5055200;28;20021;-75
2021/08/01 08:21:54;;;;;;;12.20;8.30;;;26.80;99.90;;;;;;5038216;28;20484;-76
2021/08/01 08:24:20;;;;;;;9.73;7.10;;;26.80;99.80;;;;;;5055959;28;20028;-75
2021/08/01 08:26:45;;;;;;;8.00;7.05;;;26.90;99.20;;;;;;5055728;28;20021;-75
2021/08/01 08:29:11;;;;;;;8.80;7.90;;;26.90;99.90;;;;;;5055238;28;20104;-75
2021/08/01 08:31:37;;;;;;;16.60;9.57;;;27.00;99.90;;;;;;5055745;28;20028;-75
2021/08/01 08:34:03;;;;;;;12.50;7.63;;;27.10;99.90;;;;;;5055713;28;20071;-75
2021/08/01 08:36:29;;;;;;;11.38;7.40;;;27.20;99.90;;;;;;5055396;28;20029;-75
2021/08/01 08:38:58;;;;;;;7.72;5.85;;;27.20;99.40;;;;;;5054535;28;20029;-75
2021/08/01 08:41:25;;;;;;;8.32;5.30;;;27.20;98.70;;;;;;5036843;28;20032;-76
2021/08/01 08:43:51;;;;;;;14.02;7.32;;;27.30;97.90;;;;;;5055610;28;20053;-75
2021/08/01 08:46:19;;;;;;;7.68;5.63;;;27.20;98.20;;;;;;5055127;28;20060;-75
2021/08/01 08:48:45;;;;;;;6.82;4.60;;;27.20;97.80;;;;;;5055258;28;20029;-75
2021/08/01 08:51:11;;;;;;;8.05;4.75;;;27.20;97.10;;;;;;5054623;28;20044;-75
2021/08/01 08:54:04;;;;;;;6.63;5.97;;;27.20;97.40;;;;;;5054840;28;20017;-75
2021/08/01 08:56:30;;;;;;;7.78;5.60;;;27.30;97.70;;;;;;5050398;28;20076;-75
2021/08/01 08:58:56;;;;;;;9.23;6.38;;;27.50;97.70;;;;;;5053580;28;20439;-75
2021/08/01 09:01:22;;;;;;;5.97;5.40;;;27.50;97.50;;;;;;5047099;28;20912;-75
2021/08/01 09:03:48;;;;;;;7.88;6.10;;;27.60;97.30;;;;;;5041762;28;20116;-75
2021/08/01 09:06:17;;;;;;;5.93;5.43;;;27.50;97.50;;;;;;5044736;28;20393;-75
2021/08/01 09:08:43;;;;;;;6.15;5.55;;;27.40;97.30;;;;;;5043839;28;20776;-75
2021/08/01 09:11:09;;;;;;;6.95;5.47;;;27.50;97.60;;;;;;5050398;28;20033;-75
2021/08/01 09:13:50;;;;;;;5.55;4.97;;;27.40;97.10;;;;;;5050196;28;20362;-75
2021/08/01 09:16:19;;;;;;;6.45;4.97;;;27.50;97.80;;;;;;5050084;28;20075;-75
2021/08/01 09:18:46;;;;;;;6.90;5.10;;;27.60;97.30;;;;;;5049485;28;20079;-75
2021/08/01 09:21:32;;;;;;;11.95;4.80;;;27.40;97.30;;;;;;5032836;28;20025;-75
2021/08/01 09:23:59;;;;;;;10.43;5.10;;;27.40;97.20;;;;;;5045301;28;20025;-75
2021/08/01 09:26:40;;;;;;;4.93;4.53;;;27.30;97.30;;;;;;5047432;28;20025;-75
2021/08/01 09:29:05;;;;;;;7.87;4.90;;;27.40;97.10;;;;;;5043386;28;20043;-75
2021/08/01 09:31:31;;;;;;;5.82;5.22;;;27.40;97.30;;;;;;5049796;28;20489;-76
2021/08/01 09:33:57;;;;;;;7.50;5.95;;;27.60;97.70;;;;;;5052906;28;20024;-76
2021/08/01 09:36:27;;;;;;;5.18;4.65;;;27.60;97.50;;;;;;5034235;28;20021;-75
2021/08/01 09:38:57;;;;;;;6.53;4.85;;;27.50;97.00;;;;;;5045928;28;20037;-75
2021/08/01 09:41:26;;;;;;;5.05;4.13;;;27.40;96.40;;;;;;5034977;28;20030;-75
2021/08/01 09:43:57;;;;;;;5.60;4.88;;;27.50;96.90;;;;;;5035035;28;20032;-75
2021/08/01 09:46:41;;;;;;;6.35;5.07;;;27.60;96.60;;;;;;5034822;28;20018;-75
2021/08/01 09:49:19;;;;;;;8.13;4.30;;;27.60;96.90;;;;;;5030629;28;20512;-76
2021/08/01 09:51:46;;;;;;;6.85;4.32;;;27.70;96.60;;;;;;5034350;28;20029;-75
2021/08/01 09:54:13;;;;;;;8.27;4.35;;;27.90;97.10;;;;;;5030888;28;20022;-75
2021/08/01 09:56:55;;;;;;;5.70;5.20;;;27.90;97.30;;;;;;5033722;28;20029;-76
2021/08/01 09:59:32;;;;;;;4.60;4.25;;;28.00;96.60;;;;;;5029878;28;20030;-76
2021/08/01 10:02:04;;;;;;;7.75;4.97;;;28.00;96.80;;;;;;5022171;28;20030;-76
2021/08/01 10:04:38;;;;;;;8.65;4.93;;;27.80;95.60;;;;;;5033226;28;20029;-76
2021/08/01 10:07:18;;;;;;;8.13;4.95;;;27.80;95.90;;;;;;5032363;28;20033;-76
2021/08/01 10:09:48;;;;;;;15.07;5.55;;;27.80;96.60;;;;;;5024289;28;20489;-76
2021/08/01 10:12:14;;;;;;;7.22;5.60;;;27.80;97.30;;;;;;5014824;28;20021;-76
2021/08/01 10:14:40;;;;;;;7.07;5.32;;;27.80;97.70;;;;;;5032425;28;20069;-76
2021/08/01 10:17:06;;;;;;;5.95;5.35;;;27.80;97.20;;;;;;5032536;28;20021;-76
2021/08/01 10:19:34;;;;;;;6.32;4.53;;;27.70;96.80;;;;;;5033030;28;20107;-76
2021/08/01 10:22:03;;;;;;;12.20;4.88;;;27.60;96.50;;;;;;5015859;28;20018;-76
2021/08/01 10:24:42;;;;;;;4.82;4.45;;;27.60;97.20;;;;;;5033815;28;20576;-76
2021/08/01 10:27:09;;;;;;;5.22;4.80;;;27.70;97.50;;;;;;5033871;28;20500;-76
2021/08/01 10:29:54;;;;;;;5.43;4.95;;;27.70;96.70;;;;;;5033631;28;20053;-76
2021/08/01 10:32:21;;;;;;;5.05;4.55;;;27.80;97.10;;;;;;5033934;28;20044;-76
2021/08/01 10:35:16;;;;;;;7.00;5.15;;;27.80;96.70;;;;;;5033666;28;20056;-76
2021/08/01 10:37:45;;;;;;;7.65;5.72;;;27.90;95.90;;;;;;5033513;28;20021;-76
2021/08/01 10:40:15;;;;;;;8.77;6.57;;;27.90;96.30;;;;;;5025125;28;20053;-76
2021/08/01 10:42:44;;;;;;;7.38;5.40;;;27.90;96.40;;;;;;5034078;28;20258;-76
2021/08/01 10:45:10;;;;;;;5.57;4.93;;;28.00;96.90;;;;;;5053287;28;20075;-75
2021/08/01 10:47:42;;;;;;;7.10;5.70;;;28.10;96.80;;;;;;5053186;28;20045;-76
2021/08/01 10:50:09;;;;;;;6.00;4.65;;;28.00;96.60;;;;;;5053361;28;20461;-76
2021/08/01 10:52:35;;;;;;;7.63;5.63;;;27.90;96.00;;;;;;5053493;28;20029;-76
2021/08/01 10:55:06;;;;;;;9.65;4.47;;;27.90;95.60;;;;;;5052847;28;20215;-76
2021/08/01 10:57:33;;;;;;;5.68;5.10;;;27.90;94.60;;;;;;5052912;28;20370;-75
2021/08/01 11:00:04;;;;;;;5.57;4.68;;;28.00;95.20;;;;;;5052940;28;20373;-76
2021/08/01 11:02:31;;;;;;;5.95;5.22;;;27.80;95.60;;;;;;5035110;28;20438;-76
2021/08/01 11:04:57;;;;;;;5.35;4.82;;;27.80;95.90;;;;;;5053227;28;20013;-76
2021/08/01 11:07:26;;;;;;;5.47;4.90;;;27.90;95.90;;;;;;5052731;28;20664;-76
2021/08/01 11:10:13;;;;;;;7.05;4.80;;;27.90;95.70;;;;;;5035056;28;20037;-75
2021/08/01 11:12:43;;;;;;;5.38;4.88;;;27.90;95.60;;;;;;5053051;28;20096;-76
2021/08/01 11:15:14;;;;;;;11.40;4.95;;;27.80;95.50;;;;;;5052674;28;20031;-76
2021/08/01 11:17:43;;;;;;;6.68;5.57;;;27.70;94.70;;;;;;5052860;28;20068;-76
2021/08/01 11:20:23;;;;;;;9.05;5.80;;;27.40;96.10;;;;;;5052922;28;20366;-75
2021/08/01 11:22:50;;;;;;;11.30;7.15;;;27.30;96.40;;;;;;5034977;28;20377;-76
2021/08/01 11:25:32;;;;;;;7.45;6.32;;;27.20;99.20;;;;;;5034765;28;20025;-76
2021/08/01 11:28:10;;;;;;;9.60;6.80;;;27.10;98.60;;;;;;5052654;28;20025;-76
2021/08/01 11:30:51;;;;;;;7.88;6.25;;;27.00;98.90;;;;;;5052645;28;20070;-76
2021/08/01 11:33:45;;;;;;;7.95;7.05;;;27.10;98.90;;;;;;5052604;28;20021;-76
2021/08/01 11:36:15;;;;;;;9.20;6.32;;;27.20;98.60;;;;;;5052547;28;20488;-76
2021/08/01 11:38:53;;;;;;;5.50;5.05;;;27.40;97.70;;;;;;5052519;28;20025;-76
2021/08/01 11:41:40;;;;;;;7.90;5.38;;;27.50;97.10;;;;;;5052568;28;20037;-76
2021/08/01 11:44:06;;;;;;;8.88;5.28;;;27.50;95.90;;;;;;5052469;28;20016;-76
2021/08/01 11:46:57;;;;;;;5.60;4.55;;;27.40;95.50;;;;;;5052350;28;20017;-76
2021/08/01 11:49:26;;;;;;;6.45;5.50;;;27.40;95.60;;;;;;5052698;28;20400;-76
2021/08/01 11:51:54;;;;;;;7.78;4.88;;;27.30;94.90;;;;;;5053440;28;20389;-76
2021/08/01 11:54:29;;;;;;;5.03;4.10;;;27.40;94.90;;;;;;5056669;28;20411;-75
2021/08/01 11:57:00;;;;;;;5.13;4.63;;;27.50;94.70;;;;;;5056501;28;20064;-76
2021/08/01 11:59:26;;;;;;;4.70;4.28;;;27.50;94.20;;;;;;5056639;28;20039;-76
2021/08/01 12:01:54;;;;;;;5.90;4.25;;;27.70;94.40;;;;;;5056250;28;20532;-75
2021/08/01 12:04:20;;;;;;;5.30;4.80;;;27.80;94.00;;;;;;5055810;28;20025;-76
2021/08/01 12:06:45;;;;;;;8.38;5.43;;;27.40;94.30;;;;;;5055578;28;20548;-75
2021/08/01 12:09:35;;;;;;;6.88;5.95;;;27.20;96.20;;;;;;5056378;28;20099;-76
2021/08/01 12:12:03;;;;;;;6.45;4.97;;;27.00;97.10;;;;;;5056264;28;20024;-76
2021/08/01 12:14:37;;;;;;;6.68;5.93;;;26.90;97.30;;;;;;5056167;28;20021;-76
2021/08/01 12:17:07;;;;;;;9.25;4.90;;;26.80;98.10;;;;;;5055691;28;20110;-76
2021/08/01 12:19:46;;;;;;;5.38;4.78;;;26.50;97.30;;;;;;5037953;28;20103;-75
2021/08/01 12:22:22;;;;;;;10.10;5.38;;;26.30;97.30;;;;;;5056164;28;20017;-75
2021/08/01 12:24:56;;;;;;;9.70;5.35;;;25.80;99.90;;;;;;5056097;28;20036;-76
2021/08/01 12:27:38;;;;;;;9.27;5.90;;;24.90;99.90;;;;;;5055759;28;20017;-76
2021/08/01 12:30:07;;;;;;;5.55;4.38;;;24.50;99.90;;;;;;5056208;28;20155;-77
2021/08/01 12:32:34;;;;;;;6.28;2.65;;;24.00;99.90;;;;;;5056064;28;20029;-81
2021/08/01 12:35:33;;;;;;;9.38;3.28;;;22.40;99.90;;;;;;5037939;28;20056;-86
2021/08/01 12:38:05;;;;;;;5.57;2.90;;;21.20;99.90;;;;;;4992099;28;20045;-87
2021/08/01 12:40:45;;;;;;;5.45;2.83;;;20.90;99.90;;;;;;5018315;28;20049;-86
2021/08/01 12:43:12;;;;;;;4.47;3.60;;;20.90;99.90;;;;;;5040570;28;20028;-87
2021/08/01 12:45:46;;;;;;;4.05;3.65;;;21.00;99.90;;;;;;5037677;28;20041;-86
2021/08/01 12:48:20;;;;;;;6.75;3.65;;;21.20;99.90;;;;;;5038271;28;20138;-86
2021/08/01 12:50:51;;;;;;;6.57;3.92;;;21.40;99.90;;;;;;5056016;28;20028;-86
2021/08/01 12:53:21;;;;;;;7.85;4.32;;;21.60;99.90;;;;;;5056062;28;20021;-88
2021/08/01 12:56:07;;;;;;;8.50;3.55;;;21.70;99.90;;;;;;5055816;28;20017;-88